Watford City, ND

8:23 PM CST on December 15, 2019 (GMT -0600)
Watford City

Weather History for KS25 - October, 2019

Change the Weather History Date:

Saturday, October 12, 2019

  Actual Average (KISN) Record (KISN)
Temperature  
Mean Temperature 34 °F -  
Max Temperature 39 °F 58 °F 85 °F (1934)
Min Temperature 30 °F 32 °F 11 °F (1909)
Degree Days  
Heating Degree Days 30    
Moisture  
Dew Point 22 °F    
Average Humidity 62    
Maximum Humidity 75    
Minimum Humidity 56    
Precipitation  
Precipitation 0.00 in - - ()
Sea Level Pressure  
Sea Level Pressure 29.84 in    
Wind  
Wind Speed 17 mph (NW)    
Max Wind Speed 25 mph    
Max Gust Speed 38 mph    
Visibility 10 miles    
Events      
Averages and records for this station are not official NWS values.
T = Trace of Precipitation, MM = Missing Value Source: NWS Daily Summary

Daily Weather History Graph

Daily Weather History Graph

Search for Another Location

Airport or City:

Astronomy

Oct. 12, 2019 Rise Set
Actual Time 8:07 AM CDT 7:10 PM CDT
Civil Twilight 7:36 AM CDT 7:41 PM CDT
Nautical Twilight 7:00 AM CDT 8:17 PM CDT
Astronomical Twilight 6:24 AM CDT 8:53 PM CDT
Moon 7:15 PM CDT (10/12) 6:36 AM CDT (10/12)
Length of Visible Light 12h 05m
Length of Day
11h 03m
Waxing Gibbous, 99% of the Moon is Illuminated
Oct 12
Waxing Gibbous
Oct 13
Full
Oct 21
Last Quarter
Oct 27
New
Nov 4
First Quarter

Hourly Weather History & Observations

Time (CDT) Temp. Windchill Dew Point Humidity Pressure Visibility Wind Dir Wind Speed Gust Speed Precip Events Conditions
12:15 AM 32.0 °F 22.1 °F 19.4 °F 60% 29.91 in 10.0 mi WNW 13.8 mph - N/A   Clear
12:35 AM 32.0 °F 21.6 °F 19.4 °F 60% 29.90 in 10.0 mi NW 15.0 mph - N/A   Clear
12:55 AM 32.0 °F 21.6 °F 19.4 °F 60% 29.89 in 10.0 mi WNW 15.0 mph 23.0 mph N/A   Clear
1:15 AM 32.0 °F 21.2 °F 19.4 °F 60% 29.88 in 10.0 mi NW 16.1 mph 26.5 mph N/A   Clear
1:35 AM 32.0 °F 20.8 °F 19.4 °F 60% 29.88 in 10.0 mi NW 17.3 mph 26.5 mph N/A   Mostly Cloudy
1:55 AM 32.0 °F 20.8 °F 19.4 °F 60% 29.88 in 10.0 mi NW 17.3 mph 28.8 mph N/A   Overcast
2:15 AM 32.0 °F 20.5 °F 19.4 °F 60% 29.90 in 10.0 mi NW 18.4 mph 28.8 mph N/A   Mostly Cloudy
2:35 AM 32.0 °F 20.8 °F 19.4 °F 60% 29.86 in 10.0 mi NW 17.3 mph 25.3 mph N/A   Scattered Clouds
2:55 AM 32.0 °F 19.5 °F 19.4 °F 60% 29.87 in 10.0 mi NW 21.9 mph 31.1 mph N/A   Mostly Cloudy
3:15 AM 32.0 °F 20.1 °F 19.4 °F 60% 29.87 in 10.0 mi NW 19.6 mph 26.5 mph N/A   Overcast
3:35 AM 32.0 °F 21.2 °F 19.4 °F 60% 29.86 in 10.0 mi WNW 16.1 mph 25.3 mph N/A   Overcast
3:55 AM 32.0 °F 20.5 °F 19.4 °F 60% 29.86 in 10.0 mi NW 18.4 mph 25.3 mph N/A   Mostly Cloudy
4:15 AM 32.0 °F 19.8 °F 19.4 °F 60% 29.86 in 10.0 mi WNW 20.7 mph 27.6 mph N/A   Partly Cloudy
4:35 AM 32.0 °F 20.5 °F 19.4 °F 60% 29.86 in 10.0 mi NW 18.4 mph 27.6 mph N/A   Clear
4:55 AM 32.0 °F 20.5 °F 21.2 °F 64% 29.84 in 10.0 mi NW 18.4 mph 26.5 mph N/A   Clear
5:15 AM 32.0 °F 20.1 °F 21.2 °F 64% 29.84 in 10.0 mi WNW 19.6 mph 27.6 mph N/A   Partly Cloudy
5:35 AM 32.0 °F 18.9 °F 21.2 °F 64% 29.83 in 10.0 mi NW 24.2 mph 33.4 mph N/A   Scattered Clouds
5:55 AM 32.0 °F 19.8 °F 21.2 °F 64% 29.82 in 10.0 mi NW 20.7 mph 35.7 mph N/A   Partly Cloudy
6:15 AM 32.0 °F 18.6 °F 21.2 °F 64% 29.82 in 10.0 mi NW 25.3 mph 38.0 mph N/A   Partly Cloudy
6:35 AM 32.0 °F 19.2 °F 21.2 °F 64% 29.83 in 10.0 mi NW 23.0 mph 32.2 mph N/A   Clear
6:55 AM 30.2 °F 17.1 °F 21.2 °F 69% 29.83 in 10.0 mi NW 21.9 mph 31.1 mph N/A   Clear
7:15 AM 30.2 °F 16.8 °F 21.2 °F 69% 29.83 in 10.0 mi NW 23.0 mph 31.1 mph N/A   Clear
7:35 AM 30.2 °F 16.5 °F 21.2 °F 69% 29.83 in 10.0 mi NW 24.2 mph 32.2 mph N/A   Clear
7:55 AM 30.2 °F 16.8 °F 21.2 °F 69% 29.84 in 10.0 mi NW 23.0 mph 34.5 mph N/A   Clear
8:15 AM 30.2 °F 17.4 °F 21.2 °F 69% 29.83 in 10.0 mi NW 20.7 mph 29.9 mph N/A   Clear
8:35 AM 30.2 °F 17.4 °F 21.2 °F 69% 29.84 in 10.0 mi NW 20.7 mph 26.5 mph N/A   Clear
8:55 AM 30.2 °F 18.5 °F 21.2 °F 69% 29.84 in 10.0 mi WNW 17.3 mph 27.6 mph N/A   Clear
9:15 AM 30.2 °F 18.5 °F 21.2 °F 69% 29.85 in 10.0 mi WNW 17.3 mph 23.0 mph N/A   Clear
9:35 AM 30.2 °F 17.8 °F 21.2 °F 69% 29.84 in 10.0 mi NW 19.6 mph 28.8 mph N/A   Clear
9:55 AM 32.0 °F 20.1 °F 21.2 °F 64% 29.83 in 10.0 mi NW 19.6 mph 28.8 mph N/A   Clear
10:15 AM 32.0 °F 19.8 °F 21.2 °F 64% 29.83 in 10.0 mi NW 20.7 mph 28.8 mph N/A   Clear
10:35 AM 32.0 °F 19.8 °F 21.2 °F 64% 29.84 in 10.0 mi NW 20.7 mph 33.4 mph N/A   Clear
10:55 AM 35.6 °F 23.7 °F 21.2 °F 56% 29.84 in 10.0 mi NW 24.2 mph 31.1 mph N/A   Clear
11:15 AM 33.8 °F 21.6 °F 21.2 °F 60% 29.83 in 10.0 mi NW 23.0 mph 31.1 mph N/A   Clear
11:35 AM 33.8 °F 22.8 °F 21.2 °F 60% 29.84 in 10.0 mi NW 18.4 mph 27.6 mph N/A   Clear
11:55 AM 33.8 °F 21.3 °F 21.2 °F 60% 29.84 in 10.0 mi NNW 24.2 mph 31.1 mph N/A   Mostly Cloudy
12:15 PM 35.6 °F 24.5 °F 21.2 °F 56% 29.84 in 10.0 mi NNW 20.7 mph 32.2 mph N/A   Overcast
12:35 PM 35.6 °F 23.4 °F 21.2 °F 56% 29.83 in 10.0 mi NW 25.3 mph 33.4 mph N/A   Overcast
12:55 PM 35.6 °F 23.4 °F 23.0 °F 60% 29.83 in 10.0 mi NNW 25.3 mph 34.5 mph N/A   Mostly Cloudy
1:15 PM 35.6 °F 23.4 °F 23.0 °F 60% 29.84 in 10.0 mi NNW 25.3 mph 38.0 mph N/A   Overcast
1:35 PM 35.6 °F 24.0 °F 23.0 °F 60% 29.83 in 10.0 mi NNW 23.0 mph 32.2 mph N/A   Overcast
1:55 PM 37.4 °F 26.1 °F 23.0 °F 56% 29.83 in 10.0 mi NNW 24.2 mph 33.4 mph N/A   Mostly Cloudy
2:15 PM 37.4 °F 26.4 °F 23.0 °F 56% 29.82 in 10.0 mi NW 23.0 mph 29.9 mph N/A   Overcast
2:35 PM 37.4 °F 27.2 °F 23.0 °F 56% 29.82 in 10.0 mi NNW 19.6 mph 29.9 mph N/A   Overcast
2:55 PM 37.4 °F 28.9 °F 23.0 °F 56% 29.82 in 10.0 mi North 13.8 mph 20.7 mph N/A   Overcast
3:15 PM 37.4 °F 28.9 °F 23.0 °F 56% 29.82 in 10.0 mi North 13.8 mph - N/A   Overcast
3:35 PM 37.4 °F 29.3 °F 23.0 °F 56% 29.82 in 10.0 mi North 12.7 mph - N/A   Overcast
3:55 PM 37.4 °F 29.3 °F 23.0 °F 56% 29.82 in 10.0 mi NNW 12.7 mph 18.4 mph N/A   Overcast
4:15 PM 37.4 °F 27.8 °F 23.0 °F 56% 29.82 in 10.0 mi NNW 17.3 mph - N/A   Overcast
4:35 PM 37.4 °F 28.9 °F 24.8 °F 60% 29.83 in 10.0 mi NNW 13.8 mph 21.9 mph N/A   Overcast
4:55 PM 37.4 °F 27.8 °F 23.0 °F 56% 29.82 in 10.0 mi NNW 17.3 mph 27.6 mph N/A   Overcast
5:15 PM 37.4 °F 27.5 °F 23.0 °F 56% 29.83 in 10.0 mi North 18.4 mph - N/A   Overcast
5:35 PM 37.4 °F 28.2 °F 23.0 °F 56% 29.83 in 10.0 mi North 16.1 mph 26.5 mph N/A   Overcast
5:55 PM 37.4 °F 28.9 °F 24.8 °F 60% 29.84 in 10.0 mi NNW 13.8 mph 21.9 mph N/A   Overcast
6:15 PM 37.4 °F 29.3 °F 24.8 °F 60% 29.84 in 10.0 mi NNW 12.7 mph - N/A   Overcast
6:35 PM 37.4 °F 30.8 °F 24.8 °F 60% 29.84 in 10.0 mi NNW 9.2 mph 15.0 mph N/A   Overcast
6:55 PM 37.4 °F 30.3 °F 24.8 °F 60% 29.84 in 10.0 mi NNW 10.4 mph - N/A   Overcast
7:15 PM 39.2 °F 32.0 °F 24.8 °F 56% 29.84 in 10.0 mi NNW 11.5 mph - N/A   Overcast
7:35 PM 37.4 °F 32.1 °F 24.8 °F 60% 29.85 in 10.0 mi North 6.9 mph - N/A   Overcast
7:55 PM 37.4 °F 32.8 °F 24.8 °F 60% 29.85 in 10.0 mi North 5.8 mph - N/A   Overcast
8:15 PM 37.4 °F 32.8 °F 24.8 °F 60% 29.85 in 10.0 mi NNW 5.8 mph - N/A   Overcast
8:35 PM 37.4 °F 31.4 °F 24.8 °F 60% 29.84 in 10.0 mi NNW 8.1 mph - N/A   Overcast
8:55 PM 37.4 °F 31.4 °F 26.6 °F 65% 29.85 in 10.0 mi NW 8.1 mph - N/A   Unknown
9:15 PM 37.4 °F 32.1 °F 26.6 °F 65% 29.85 in 10.0 mi NNW 6.9 mph - N/A   Unknown
9:35 PM 37.4 °F 32.1 °F 26.6 °F 65% 29.85 in 10.0 mi NNE 6.9 mph - N/A   Overcast
9:55 PM 35.6 °F 29.2 °F 26.6 °F 70% 29.85 in 10.0 mi North 8.1 mph - N/A   Overcast
10:15 PM 35.6 °F 29.2 °F 26.6 °F 70% 29.85 in 10.0 mi North 8.1 mph - N/A   Unknown
10:35 PM 35.6 °F 29.2 °F 26.6 °F 70% 29.86 in 10.0 mi North 8.1 mph - N/A   Overcast
10:55 PM 35.6 °F - 26.6 °F 70% 29.86 in 10.0 mi North - - N/A   Overcast
11:15 PM 35.6 °F 28.0 °F 26.6 °F 70% 29.86 in 10.0 mi NNW 10.4 mph - N/A   Overcast
11:35 PM 35.6 °F 28.6 °F 26.6 °F 70% 29.85 in 10.0 mi NNW 9.2 mph - N/A   Overcast
11:55 PM 33.8 °F 26.4 °F 26.6 °F 75% 29.85 in 10.0 mi NW 9.2 mph - N/A   Overcast